Time;durP1;ratioP1;P1;durP2;ratioP2;P2;SDS_P1;SDS_P2;PMS_P1;PMS_P2;Temp;Humidity;BMP_temperature;BMP_pressure;BME280_temperature;BME280_humidity;BME280_pressure;Samples;Min_cycle;Max_cycle;Signal;HPM_P1;HPM_P2
2023/01/21 00:00:27;;;;;;;82.67;17.30;;;-0.60;99.90;;;;;;6221200;23;20160;-84
2023/01/21 00:02:53;;;;;;;79.90;15.87;;;-0.70;99.90;;;;;;6221326;23;20141;-84
2023/01/21 00:05:18;;;;;;;80.43;16.90;;;-0.70;99.90;;;;;;6220681;23;20141;-84
2023/01/21 00:07:44;;;;;;;85.93;18.87;;;-0.80;99.90;;;;;;6220777;23;20160;-84
2023/01/21 00:10:10;;;;;;;80.50;15.33;;;-0.80;99.90;;;;;;6221238;23;20164;-84
2023/01/21 00:12:36;;;;;;;80.00;16.07;;;-0.70;99.90;;;;;;6220650;23;20165;-84
2023/01/21 00:15:02;;;;;;;84.90;15.70;;;-0.70;99.90;;;;;;6222217;23;20272;-84
2023/01/21 00:17:34;;;;;;;82.13;17.50;;;-0.70;99.90;;;;;;6222163;23;20598;-84
2023/01/21 00:19:59;;;;;;;89.78;17.45;;;-0.70;99.90;;;;;;6222501;23;20348;-84
2023/01/21 00:22:25;;;;;;;80.73;16.90;;;-0.80;99.90;;;;;;6222711;23;20458;-84
2023/01/21 00:24:51;;;;;;;83.60;17.23;;;-0.80;99.90;;;;;;6222558;23;20371;-84
2023/01/21 00:27:16;;;;;;;85.50;17.00;;;-0.80;99.90;;;;;;6195518;23;20144;-84
2023/01/21 00:29:42;;;;;;;85.00;17.30;;;-0.90;99.90;;;;;;6222932;23;20155;-84
2023/01/21 00:32:08;;;;;;;79.47;16.73;;;-0.80;99.90;;;;;;6222435;23;20186;-84
2023/01/21 00:34:33;;;;;;;82.63;16.60;;;-0.90;99.90;;;;;;6222928;23;20136;-84
2023/01/21 00:36:59;;;;;;;86.40;17.27;;;-0.90;99.90;;;;;;6222082;23;20601;-84
2023/01/21 00:39:25;;;;;;;83.60;17.40;;;-0.90;99.90;;;;;;6195530;23;20144;-84
2023/01/21 00:41:50;;;;;;;87.00;17.50;;;-0.80;99.90;;;;;;6221364;23;20164;-84
2023/01/21 00:44:16;;;;;;;83.27;15.80;;;-0.80;99.90;;;;;;6194033;23;20498;-84
2023/01/21 00:46:42;;;;;;;89.18;17.73;;;-0.90;99.90;;;;;;6195770;23;20562;-83
2023/01/21 00:49:07;;;;;;;82.27;17.20;;;-1.00;99.90;;;;;;6221221;23;20141;-84
2023/01/21 00:51:33;;;;;;;84.20;15.87;;;-1.00;99.90;;;;;;6220877;23;20165;-84
2023/01/21 00:53:59;;;;;;;86.87;18.53;;;-0.90;99.90;;;;;;6220598;23;20164;-84
2023/01/21 00:56:24;;;;;;;88.07;18.30;;;-0.90;99.90;;;;;;6221136;23;20140;-84
2023/01/21 00:58:50;;;;;;;87.90;18.60;;;-0.70;99.90;;;;;;6194403;23;20534;-84
2023/01/21 01:01:33;;;;;;;83.77;18.50;;;-0.60;99.90;;;;;;5076432;27;1354116;-84
2023/01/21 01:03:58;;;;;;;89.18;18.98;;;-0.40;99.90;;;;;;5115522;28;20408;-84
2023/01/21 01:06:24;;;;;;;86.33;18.90;;;-0.40;99.90;;;;;;5098270;28;20188;-84
2023/01/21 01:08:50;;;;;;;89.10;18.40;;;-0.40;99.90;;;;;;5116514;28;20166;-84
2023/01/21 01:11:17;;;;;;;82.53;17.35;;;-0.40;99.90;;;;;;5098861;28;20269;-84
2023/01/21 01:13:43;;;;;;;85.60;18.00;;;-0.50;99.90;;;;;;5116904;28;20222;-84
2023/01/21 01:16:12;;;;;;;85.85;17.50;;;-0.60;99.90;;;;;;5098838;28;20284;-84
2023/01/21 01:18:39;;;;;;;90.43;20.73;;;-0.70;99.90;;;;;;5098679;28;20625;-84
2023/01/21 01:21:09;;;;;;;87.80;18.50;;;-0.80;99.90;;;;;;5098162;28;20663;-84
2023/01/21 01:23:35;;;;;;;80.38;17.05;;;-0.90;99.90;;;;;;5098395;28;20197;-84
2023/01/21 01:26:04;;;;;;;83.78;18.55;;;-0.80;99.90;;;;;;5116308;28;20163;-83
2023/01/21 01:28:31;;;;;;;85.28;17.63;;;-0.90;99.90;;;;;;5116000;28;20197;-83
2023/01/21 01:30:57;;;;;;;79.45;17.05;;;-1.00;99.90;;;;;;5116620;28;20545;-83
2023/01/21 01:33:24;;;;;;;86.80;16.52;;;-1.10;99.90;;;;;;5097935;28;20665;-83
2023/01/21 01:35:49;;;;;;;93.15;19.58;;;-1.10;99.90;;;;;;5098537;28;20226;-84
2023/01/21 01:38:18;;;;;;;83.90;18.23;;;-1.20;99.90;;;;;;5098179;28;20235;-84
2023/01/21 01:40:49;;;;;;;89.00;18.30;;;-1.20;99.90;;;;;;5098106;28;20289;-83
2023/01/21 01:43:16;;;;;;;85.18;18.50;;;-1.30;99.90;;;;;;5098189;28;20625;-83
2023/01/21 01:45:42;;;;;;;81.75;17.75;;;-1.30;99.90;;;;;;5116162;28;20668;-83
2023/01/21 01:48:18;;;;;;;83.27;18.80;;;-1.30;99.90;;;;;;5098062;28;20162;-83
2023/01/21 01:50:47;;;;;;;82.57;16.60;;;-1.40;99.90;;;;;;5116316;28;20182;-83
2023/01/21 01:53:15;;;;;;;78.50;15.43;;;-1.50;99.90;;;;;;5115852;28;20162;-83
2023/01/21 01:55:41;;;;;;;79.55;16.50;;;-1.60;99.90;;;;;;5115844;28;20155;-83
2023/01/21 01:58:11;;;;;;;84.75;17.65;;;-1.50;99.90;;;;;;5115339;28;20237;-83
2023/01/21 02:00:37;;;;;;;82.32;17.55;;;-1.60;99.90;;;;;;5115150;28;20194;-83
2023/01/21 02:05:48;;;;;;;83.80;20.13;;;-1.50;99.90;;;;;;5115699;28;20540;-83
2023/01/21 02:08:14;;;;;;;81.25;17.58;;;-1.60;99.90;;;;;;5115565;28;20158;-83
2023/01/21 02:10:40;;;;;;;81.65;16.20;;;-1.60;99.90;;;;;;5114732;28;20542;-83
2023/01/21 02:13:06;;;;;;;87.83;18.50;;;-1.70;99.90;;;;;;5100669;28;20169;-83
2023/01/21 02:15:45;;;;;;;89.10;18.67;;;-1.70;99.90;;;;;;5101359;28;20167;-83
2023/01/21 02:18:47;;;;;;;85.82;18.83;;;-1.70;99.90;;;;;;5101832;28;20397;-83
2023/01/21 02:21:37;;;;;;;83.43;17.85;;;-1.70;99.90;;;;;;5088126;28;20264;-83
2023/01/21 02:24:08;;;;;;;84.75;17.48;;;-1.80;99.90;;;;;;5101902;28;20159;-83
2023/01/21 02:26:36;;;;;;;85.05;17.98;;;-1.70;99.90;;;;;;5100708;28;20582;-83
2023/01/21 02:29:44;;;;;;;81.95;15.82;;;-1.70;99.90;;;;;;5102179;28;20175;-83
2023/01/21 02:32:45;;;;;;;82.10;17.30;;;-1.80;99.90;;;;;;5101305;28;20174;-83
2023/01/21 02:35:39;;;;;;;78.65;16.15;;;-1.80;99.90;;;;;;5101894;28;20189;-83
2023/01/21 02:38:11;;;;;;;84.00;17.00;;;-1.80;99.90;;;;;;5100846;28;20171;-83
2023/01/21 02:40:42;;;;;;;83.82;18.52;;;-1.90;99.90;;;;;;5082517;28;20221;-82
2023/01/21 02:43:28;;;;;;;82.47;17.35;;;-1.80;99.90;;;;;;5101405;28;20660;-82
2023/01/21 02:46:25;;;;;;;79.05;16.50;;;-1.90;99.90;;;;;;5082104;28;20229;-82
2023/01/21 02:49:04;;;;;;;88.35;17.92;;;-1.90;99.90;;;;;;5101718;28;20197;-82
2023/01/21 02:51:29;;;;;;;80.15;16.52;;;-2.00;99.90;;;;;;5101092;28;20175;-82
2023/01/21 02:53:55;;;;;;;82.77;17.43;;;-2.00;99.90;;;;;;5100843;28;20571;-82
2023/01/21 02:56:24;;;;;;;80.33;16.40;;;-2.00;99.90;;;;;;5101059;28;20521;-82
2023/01/21 02:59:01;;;;;;;80.72;16.63;;;-2.10;99.90;;;;;;5082941;28;20537;-83
2023/01/21 03:01:42;;;;;;;85.47;17.02;;;-2.00;99.90;;;;;;5082165;28;20542;-83
2023/01/21 03:04:29;;;;;;;80.65;18.05;;;-2.00;99.90;;;;;;5101026;28;20162;-83
2023/01/21 03:07:10;;;;;;;84.05;19.33;;;-2.00;99.90;;;;;;5082353;28;20160;-82
2023/01/21 03:09:36;;;;;;;85.30;19.63;;;-2.00;99.90;;;;;;5082218;28;20164;-82
2023/01/21 03:12:08;;;;;;;81.60;17.20;;;-2.10;99.90;;;;;;5082487;28;20195;-82
2023/01/21 03:17:48;;;;;;;84.78;16.90;;;-2.20;99.90;;;;;;5100819;28;20163;-82
2023/01/21 03:20:17;;;;;;;83.45;19.00;;;-2.10;99.90;;;;;;5100382;28;20248;-82
2023/01/21 03:22:43;;;;;;;83.53;17.75;;;-2.10;99.90;;;;;;5100106;28;20171;-83
2023/01/21 03:25:12;;;;;;;85.88;18.45;;;-2.20;99.90;;;;;;5100689;28;20162;-82
2023/01/21 03:27:41;;;;;;;82.75;17.58;;;-2.10;99.90;;;;;;5082411;28;20171;-82
2023/01/21 03:30:17;;;;;;;86.63;18.45;;;-2.20;99.90;;;;;;5100293;28;20206;-83
2023/01/21 03:32:47;;;;;;;86.25;17.15;;;-2.30;99.90;;;;;;5082994;28;20174;-82
2023/01/21 03:35:27;;;;;;;89.68;17.52;;;-2.20;99.90;;;;;;5100400;28;20148;-82
2023/01/21 03:37:59;;;;;;;81.75;16.55;;;-2.30;99.90;;;;;;5100053;28;20151;-82
2023/01/21 03:40:26;;;;;;;82.57;17.98;;;-2.30;99.90;;;;;;5100593;28;20210;-82
2023/01/21 03:42:55;;;;;;;78.50;16.23;;;-2.30;99.90;;;;;;5082506;28;20414;-82
2023/01/21 03:45:49;;;;;;;86.32;20.52;;;-2.30;99.90;;;;;;5100381;28;20155;-82
2023/01/21 03:48:57;;;;;;;83.82;17.90;;;-2.40;99.90;;;;;;5074647;28;20171;-82
2023/01/21 03:51:30;;;;;;;79.03;16.00;;;-2.40;99.90;;;;;;5018255;28;20190;-81
2023/01/21 03:53:58;;;;;;;83.38;17.15;;;-2.30;99.90;;;;;;5069153;28;20182;-82
2023/01/21 03:56:27;;;;;;;81.03;15.63;;;-2.40;99.90;;;;;;5082112;28;20178;-82
2023/01/21 03:58:53;;;;;;;81.70;18.27;;;-2.40;99.90;;;;;;5081668;28;20167;-82
2023/01/21 04:01:19;;;;;;;85.70;17.17;;;-2.40;99.90;;;;;;5099871;28;20689;-82
2023/01/21 04:03:45;;;;;;;82.45;18.58;;;-2.50;99.90;;;;;;5099677;28;20763;-82
2023/01/21 04:06:15;;;;;;;86.27;19.17;;;-2.50;99.90;;;;;;5100119;28;20212;-82
2023/01/21 04:08:41;;;;;;;80.22;16.73;;;-2.50;99.90;;;;;;5099193;28;20521;-83
2023/01/21 04:11:07;;;;;;;79.85;16.90;;;-2.40;99.90;;;;;;5081646;28;20190;-82
2023/01/21 04:13:32;;;;;;;80.80;17.97;;;-2.40;99.90;;;;;;5081525;28;20175;-82
2023/01/21 04:15:58;;;;;;;83.83;16.60;;;-2.40;99.90;;;;;;5081305;28;20533;-83
2023/01/21 04:18:23;;;;;;;79.37;16.53;;;-2.40;99.90;;;;;;5081849;28;20580;-82
2023/01/21 04:20:49;;;;;;;81.87;18.17;;;-2.50;99.90;;;;;;5081694;28;20202;-82
2023/01/21 04:23:15;;;;;;;88.20;18.00;;;-2.50;99.90;;;;;;5081682;28;20174;-82
2023/01/21 04:25:41;;;;;;;83.40;17.23;;;-2.40;99.90;;;;;;5099894;28;20622;-81
2023/01/21 04:28:07;;;;;;;79.63;16.55;;;-2.40;99.90;;;;;;5100700;28;20155;-82
2023/01/21 04:30:32;;;;;;;84.30;16.87;;;-2.30;99.90;;;;;;5081493;28;20205;-83
2023/01/21 04:32:58;;;;;;;86.30;17.07;;;-2.30;99.90;;;;;;5099739;28;20217;-82
2023/01/21 04:35:24;;;;;;;84.63;17.87;;;-2.20;99.90;;;;;;5099386;28;20163;-82
2023/01/21 04:37:50;;;;;;;79.97;16.00;;;-2.30;99.90;;;;;;5082018;28;20411;-83
2023/01/21 04:40:15;;;;;;;82.77;17.50;;;-2.30;99.90;;;;;;5099929;28;20584;-82
2023/01/21 04:42:42;;;;;;;81.07;17.27;;;-2.20;99.90;;;;;;5099791;28;20166;-82
2023/01/21 04:45:08;;;;;;;84.93;17.45;;;-2.20;99.90;;;;;;5099154;28;20417;-83
2023/01/21 04:47:34;;;;;;;81.32;17.73;;;-2.20;99.90;;;;;;5099636;28;20163;-82
2023/01/21 04:50:00;;;;;;;81.40;17.47;;;-2.20;99.90;;;;;;5099772;28;20165;-83
2023/01/21 04:52:26;;;;;;;81.93;17.77;;;-2.20;99.90;;;;;;5081560;28;20267;-83
2023/01/21 04:54:52;;;;;;;87.87;19.83;;;-2.20;99.90;;;;;;5099713;28;20697;-82
2023/01/21 04:57:18;;;;;;;79.60;17.30;;;-2.30;99.90;;;;;;5099457;28;20398;-83
2023/01/21 04:59:43;;;;;;;83.10;17.43;;;-2.30;99.90;;;;;;5099652;28;20191;-81
2023/01/21 05:02:09;;;;;;;79.17;17.63;;;-2.30;99.90;;;;;;5100141;28;20212;-84
2023/01/21 05:04:35;;;;;;;81.17;17.43;;;-2.40;99.90;;;;;;5098791;28;20159;-84
2023/01/21 05:07:00;;;;;;;82.67;16.50;;;-2.40;99.90;;;;;;5099471;28;20159;-83
2023/01/21 05:09:26;;;;;;;79.93;15.47;;;-2.50;99.90;;;;;;5099398;28;20163;-83
2023/01/21 05:11:52;;;;;;;79.57;15.80;;;-2.40;99.90;;;;;;5081520;28;20225;-82
2023/01/21 05:14:17;;;;;;;80.77;16.17;;;-2.20;99.90;;;;;;5099823;28;20756;-83
2023/01/21 05:16:43;;;;;;;83.47;18.30;;;-2.20;99.90;;;;;;5164896;22;20238;-86
2023/01/21 05:19:09;;;;;;;82.60;16.60;;;-2.20;99.90;;;;;;5092633;28;20167;-86
2023/01/21 05:21:35;;;;;;;81.30;16.90;;;-2.30;99.90;;;;;;5092782;28;20458;-86
2023/01/21 05:24:01;;;;;;;82.17;17.70;;;-2.40;99.90;;;;;;5093103;28;20402;-86
2023/01/21 05:26:27;;;;;;;84.25;18.85;;;-2.40;99.90;;;;;;5092533;28;20503;-86
2023/01/21 05:28:52;;;;;;;86.70;16.90;;;-2.40;99.90;;;;;;5092845;28;20182;-86
2023/01/21 05:31:18;;;;;;;80.97;17.83;;;-2.30;99.90;;;;;;5092834;28;20184;-86
2023/01/21 05:33:45;;;;;;;82.77;17.23;;;-2.40;99.90;;;;;;5075372;28;20172;-86
2023/01/21 05:36:12;;;;;;;84.57;18.92;;;-2.40;99.90;;;;;;5092695;28;20178;-86
2023/01/21 05:38:38;;;;;;;91.28;16.98;;;-2.50;99.90;;;;;;5092868;28;20260;-86
2023/01/21 05:41:04;;;;;;;80.05;16.65;;;-2.50;99.90;;;;;;5092186;28;20199;-86
2023/01/21 05:43:33;;;;;;;79.50;17.67;;;-2.50;99.90;;;;;;5092539;28;20200;-86
2023/01/21 05:45:58;;;;;;;83.60;17.50;;;-2.50;99.90;;;;;;5092657;28;20410;-86
2023/01/21 05:48:24;;;;;;;83.17;19.67;;;-2.50;99.90;;;;;;5078926;28;20704;-86
2023/01/21 05:50:50;;;;;;;81.25;18.58;;;-2.60;99.90;;;;;;5078831;28;20199;-86
2023/01/21 05:53:16;;;;;;;84.40;18.45;;;-2.70;99.90;;;;;;5096598;28;20164;-86
2023/01/21 05:55:42;;;;;;;76.97;16.15;;;-2.70;99.90;;;;;;5096797;28;20174;-86
2023/01/21 05:58:08;;;;;;;79.93;15.60;;;-2.80;99.90;;;;;;5095632;28;20172;-86
2023/01/21 06:00:34;;;;;;;88.63;17.75;;;-2.80;99.90;;;;;;5096078;28;20207;-86
2023/01/21 06:03:01;;;;;;;83.90;16.70;;;-2.80;99.90;;;;;;5095580;28;20159;-86
2023/01/21 06:05:28;;;;;;;81.13;17.25;;;-2.80;99.90;;;;;;5078357;28;20196;-86
2023/01/21 06:07:54;;;;;;;83.00;18.58;;;-2.80;99.90;;;;;;5095634;28;20152;-86
2023/01/21 06:10:19;;;;;;;84.90;18.30;;;-2.80;99.90;;;;;;5096237;28;20199;-86
2023/01/21 06:12:48;;;;;;;79.80;18.63;;;-2.90;99.90;;;;;;5095711;28;20176;-86
2023/01/21 06:15:14;;;;;;;79.78;17.50;;;-2.90;99.90;;;;;;5077059;28;20410;-86
2023/01/21 06:17:40;;;;;;;84.57;19.50;;;-3.00;99.90;;;;;;5094400;28;20187;-86
2023/01/21 06:20:07;;;;;;;82.27;17.50;;;-3.00;99.90;;;;;;5094390;28;20275;-86
2023/01/21 06:22:33;;;;;;;81.43;17.65;;;-3.00;99.90;;;;;;5078051;28;20152;-86
2023/01/21 06:25:01;;;;;;;79.57;19.00;;;-3.00;99.90;;;;;;5094439;28;20228;-86
2023/01/21 06:27:27;;;;;;;84.22;19.60;;;-3.00;99.90;;;;;;5076272;28;20509;-86
2023/01/21 06:29:53;;;;;;;83.07;16.43;;;-2.90;99.90;;;;;;5076241;28;20649;-86
2023/01/21 06:32:18;;;;;;;84.43;17.07;;;-3.00;99.90;;;;;;5093966;28;20530;-86
2023/01/21 06:34:44;;;;;;;80.00;16.20;;;-3.00;99.90;;;;;;5076188;28;20267;-86
2023/01/21 06:37:10;;;;;;;90.07;18.20;;;-3.00;99.90;;;;;;5091103;28;20183;-86
2023/01/21 06:39:36;;;;;;;83.87;18.23;;;-3.00;99.90;;;;;;5090282;28;20184;-85
2023/01/21 06:42:02;;;;;;;85.95;18.40;;;-3.10;99.90;;;;;;5090138;28;20195;-85
2023/01/21 06:44:28;;;;;;;85.90;17.53;;;-3.00;99.90;;;;;;5072736;28;20164;-85
2023/01/21 06:46:56;;;;;;;86.60;19.83;;;-3.00;99.90;;;;;;5074579;28;20231;-85
2023/01/21 06:49:21;;;;;;;84.45;18.73;;;-3.00;99.90;;;;;;5092421;28;20398;-85
2023/01/21 06:51:47;;;;;;;84.37;17.70;;;-3.00;99.90;;;;;;5074706;28;20218;-85
2023/01/21 06:54:13;;;;;;;83.07;18.33;;;-3.00;99.90;;;;;;5092032;28;20156;-85
2023/01/21 06:56:42;;;;;;;85.27;18.63;;;-3.10;99.90;;;;;;5089351;28;20166;-85
2023/01/21 06:59:08;;;;;;;81.15;18.83;;;-3.20;99.90;;;;;;5089855;28;20434;-85
2023/01/21 07:01:33;;;;;;;81.17;17.37;;;-3.20;99.90;;;;;;5071724;28;20243;-85
2023/01/21 07:04:00;;;;;;;84.60;19.27;;;-3.30;99.90;;;;;;5088763;28;20646;-85
2023/01/21 07:06:26;;;;;;;84.10;17.20;;;-3.30;99.90;;;;;;5072113;28;20167;-85
2023/01/21 07:08:52;;;;;;;79.57;16.80;;;-3.30;99.90;;;;;;5089327;28;20227;-85
2023/01/21 07:11:17;;;;;;;80.53;17.93;;;-3.40;99.90;;;;;;5088631;28;20183;-85
2023/01/21 07:13:43;;;;;;;79.97;17.70;;;-3.30;99.90;;;;;;5070731;28;20414;-85
2023/01/21 07:16:13;;;;;;;80.30;16.23;;;-3.30;99.90;;;;;;5071088;28;20171;-85
2023/01/21 07:18:42;;;;;;;79.55;17.15;;;-3.30;99.90;;;;;;5061781;28;20438;-85
2023/01/21 07:21:11;;;;;;;83.07;16.10;;;-3.30;99.90;;;;;;5070080;28;20199;-85
2023/01/21 07:23:39;;;;;;;84.57;18.35;;;-3.20;99.90;;;;;;5070351;28;20179;-85
2023/01/21 07:26:05;;;;;;;81.07;17.83;;;-3.30;99.90;;;;;;5070196;28;20271;-86
2023/01/21 07:28:31;;;;;;;81.40;18.42;;;-3.20;99.90;;;;;;5088332;28;20160;-85
2023/01/21 07:31:06;;;;;;;82.20;17.77;;;-3.30;99.90;;;;;;5088082;28;20215;-85
2023/01/21 07:33:34;;;;;;;82.70;18.15;;;-3.30;99.90;;;;;;5088462;28;20167;-85
2023/01/21 07:36:00;;;;;;;83.72;17.50;;;-3.40;99.90;;;;;;5088005;28;20144;-85
2023/01/21 07:38:26;;;;;;;82.60;20.60;;;-3.40;99.90;;;;;;5069244;28;20191;-85
2023/01/21 07:40:58;;;;;;;82.87;17.93;;;-3.30;99.90;;;;;;5069860;28;20461;-85
2023/01/21 07:43:26;;;;;;;78.85;16.13;;;-3.30;99.90;;;;;;5069449;28;20456;-85
2023/01/21 07:45:52;;;;;;;81.95;18.40;;;-3.30;99.90;;;;;;5087626;28;20160;-85
2023/01/21 07:48:18;;;;;;;79.65;17.30;;;-3.20;99.90;;;;;;5069192;28;20170;-85
2023/01/21 07:50:43;;;;;;;77.30;16.00;;;-3.20;99.90;;;;;;5069304;28;20212;-85
2023/01/21 07:53:10;;;;;;;89.03;21.40;;;-3.10;99.90;;;;;;5068003;28;20444;-85
2023/01/21 07:55:36;;;;;;;98.72;21.05;;;-2.80;99.90;;;;;;5087458;28;20170;-85
2023/01/21 07:58:02;;;;;;;85.63;19.83;;;-2.80;99.90;;;;;;5086804;28;20192;-85
2023/01/21 08:00:28;;;;;;;89.73;18.17;;;-2.70;99.90;;;;;;5087500;28;20548;-85
2023/01/21 08:02:57;;;;;;;87.20;20.03;;;-2.60;99.90;;;;;;5087266;28;20164;-85
2023/01/21 08:05:25;;;;;;;92.85;19.85;;;-2.60;99.90;;;;;;5070739;28;20394;-85
2023/01/21 08:07:51;;;;;;;85.13;18.52;;;-2.70;99.90;;;;;;5087578;28;20203;-85
2023/01/21 08:10:18;;;;;;;87.38;18.08;;;-2.70;99.90;;;;;;5086226;28;20210;-85
2023/01/21 08:12:44;;;;;;;90.32;19.85;;;-2.60;99.90;;;;;;5086952;28;20176;-85
2023/01/21 08:15:10;;;;;;;89.20;21.57;;;-2.60;99.90;;;;;;5068318;28;20180;-85
2023/01/21 08:17:38;;;;;;;87.22;21.35;;;-2.60;99.90;;;;;;5086271;28;20797;-85
2023/01/21 08:20:04;;;;;;;90.13;19.70;;;-2.60;99.90;;;;;;5085941;28;21934;-85
2023/01/21 08:22:30;;;;;;;80.90;18.13;;;-2.60;99.90;;;;;;5069402;28;20185;-84
2023/01/21 08:24:56;;;;;;;88.13;20.08;;;-2.60;99.90;;;;;;5088039;28;20175;-85
2023/01/21 08:27:22;;;;;;;82.43;17.17;;;-2.60;99.90;;;;;;5089742;28;20168;-85
2023/01/21 08:29:48;;;;;;;84.17;17.23;;;-2.60;99.90;;;;;;5090540;28;20406;-84
2023/01/21 08:32:14;;;;;;;86.03;18.63;;;-2.50;99.90;;;;;;5072108;28;20235;-84
2023/01/21 08:34:40;;;;;;;90.10;19.00;;;-2.40;99.90;;;;;;5088545;28;20172;-85
2023/01/21 08:37:05;;;;;;;85.60;18.53;;;-2.40;99.90;;;;;;5088354;28;20174;-84
2023/01/21 08:39:31;;;;;;;86.47;18.70;;;-2.30;99.90;;;;;;5088900;28;20171;-84
2023/01/21 08:41:58;;;;;;;87.90;18.83;;;-2.30;99.90;;;;;;5088372;28;20509;-85
2023/01/21 08:44:23;;;;;;;87.88;18.10;;;-2.30;99.90;;;;;;5088552;28;20406;-85
2023/01/21 08:46:49;;;;;;;87.47;18.97;;;-2.20;99.90;;;;;;5087975;28;20638;-85
2023/01/21 08:49:15;;;;;;;88.33;20.30;;;-2.20;99.90;;;;;;5087858;28;20170;-85
2023/01/21 08:51:40;;;;;;;92.97;19.13;;;-2.10;99.90;;;;;;5089506;28;20196;-85
2023/01/21 08:54:07;;;;;;;88.60;21.90;;;-2.10;99.90;;;;;;5088953;28;20179;-84
2023/01/21 08:56:33;;;;;;;88.25;20.48;;;-2.00;99.90;;;;;;5069946;28;20191;-85
2023/01/21 08:59:01;;;;;;;87.88;20.60;;;-1.90;99.90;;;;;;5070978;28;20179;-84
2023/01/21 09:01:27;;;;;;;87.82;20.77;;;-1.80;99.90;;;;;;5088626;28;20274;-84
2023/01/21 09:04:01;;;;;;;91.65;22.40;;;-1.70;99.90;;;;;;5088884;28;20159;-84
2023/01/21 09:06:28;;;;;;;87.00;21.05;;;-1.70;99.90;;;;;;5071306;28;20160;-84
2023/01/21 09:08:55;;;;;;;95.90;23.95;;;-1.60;99.90;;;;;;5071268;28;20163;-84
2023/01/21 09:11:22;;;;;;;95.50;27.40;;;-1.50;99.90;;;;;;5088396;28;20243;-84
2023/01/21 09:13:47;;;;;;;97.25;28.17;;;-1.40;99.90;;;;;;5088996;28;20168;-84
2023/01/21 09:16:16;;;;;;;103.43;26.97;;;-1.40;99.90;;;;;;5088276;28;20609;-84
2023/01/21 09:18:42;;;;;;;97.18;27.25;;;-1.30;99.90;;;;;;5090399;28;20394;-84
2023/01/21 09:21:09;;;;;;;105.20;33.00;;;-1.20;99.90;;;;;;5087361;28;20200;-83
2023/01/21 09:23:36;;;;;;;94.93;28.30;;;-1.10;99.90;;;;;;5091248;28;20167;-83
2023/01/21 09:26:06;;;;;;;97.15;30.90;;;-1.00;99.90;;;;;;5073616;28;20191;-83
2023/01/21 09:28:35;;;;;;;99.22;29.67;;;-1.00;99.90;;;;;;5075534;28;20157;-83
2023/01/21 09:31:04;;;;;;;97.97;32.25;;;-0.90;99.90;;;;;;5075314;28;20195;-84
2023/01/21 09:33:31;;;;;;;89.63;30.30;;;-0.80;99.90;;;;;;5074935;28;20573;-84
2023/01/21 09:36:02;;;;;;;90.55;27.83;;;-0.70;99.90;;;;;;5075249;28;20309;-84
2023/01/21 09:38:29;;;;;;;99.10;31.55;;;-0.60;99.90;;;;;;5092966;28;20149;-84
2023/01/21 09:41:26;;;;;;;89.65;30.60;;;-0.50;99.90;;;;;;5075482;28;20218;-84
2023/01/21 09:44:01;;;;;;;90.95;26.45;;;-0.40;99.90;;;;;;5094035;28;20153;-84
2023/01/21 09:46:30;;;;;;;93.95;28.48;;;-0.30;99.90;;;;;;5092894;28;20603;-84
2023/01/21 09:48:58;;;;;;;90.28;27.75;;;-0.30;99.90;;;;;;5093780;28;20171;-84
2023/01/21 09:51:39;;;;;;;110.18;40.03;;;-0.30;99.90;;;;;;5093579;28;20180;-84
2023/01/21 09:54:16;;;;;;;99.65;31.52;;;-0.20;99.90;;;;;;5093109;28;20156;-84
2023/01/21 09:56:55;;;;;;;106.90;41.88;;;-0.30;99.90;;;;;;5075314;28;20166;-85
2023/01/21 09:59:56;;;;;;;96.43;29.63;;;-0.30;99.90;;;;;;5093980;28;20171;-84
2023/01/21 10:02:31;;;;;;;92.93;27.77;;;-0.20;99.90;;;;;;5075256;28;20187;-85
2023/01/21 10:05:28;;;;;;;88.55;23.17;;;-0.20;99.90;;;;;;5075100;28;20215;-84
2023/01/21 10:08:19;;;;;;;90.78;23.08;;;-0.10;99.90;;;;;;5093699;28;20155;-84
2023/01/21 10:10:57;;;;;;;87.65;22.45;;;0.00;99.90;;;;;;5055187;28;20196;-84
2023/01/21 10:13:57;;;;;;;100.05;27.40;;;-0.10;99.90;;;;;;5092490;28;20151;-85
2023/01/21 10:16:44;;;;;;;91.53;21.25;;;0.00;99.90;;;;;;5092868;28;20266;-84
2023/01/21 10:19:47;;;;;;;88.60;19.40;;;0.00;99.90;;;;;;5075082;28;20523;-84
2023/01/21 10:22:31;;;;;;;94.75;21.73;;;0.10;99.90;;;;;;5087850;28;20188;-84
2023/01/21 10:25:19;;;;;;;86.15;19.55;;;0.10;99.90;;;;;;5074598;28;20201;-85
2023/01/21 10:27:47;;;;;;;88.78;19.42;;;0.10;99.90;;;;;;5075672;28;20164;-84
2023/01/21 10:30:42;;;;;;;93.63;21.40;;;0.10;99.90;;;;;;5075384;28;20192;-85
2023/01/21 10:33:20;;;;;;;92.07;21.10;;;0.20;99.90;;;;;;5092248;28;20519;-85
2023/01/21 10:36:11;;;;;;;92.35;21.05;;;0.30;99.90;;;;;;5092613;28;20147;-85
2023/01/21 10:38:57;;;;;;;92.38;19.27;;;0.30;99.90;;;;;;5074688;28;20194;-85
2023/01/21 10:41:52;;;;;;;91.22;19.83;;;0.30;99.90;;;;;;5151936;22;20223;-85
2023/01/21 10:44:51;;;;;;;94.80;20.10;;;0.30;99.90;;;;;;5075581;28;20176;-85
2023/01/21 10:47:38;;;;;;;94.05;20.48;;;0.40;99.90;;;;;;5093049;28;20216;-85
2023/01/21 10:50:39;;;;;;;90.88;19.88;;;0.50;99.90;;;;;;5074827;28;20179;-85
2023/01/21 10:53:35;;;;;;;94.45;20.65;;;0.50;99.90;;;;;;5092145;28;20159;-85
2023/01/21 10:56:47;;;;;;;92.50;19.77;;;0.50;99.90;;;;;;5074653;28;20251;-85
2023/01/21 10:59:26;;;;;;;87.28;21.45;;;0.40;99.90;;;;;;5075527;28;20163;-85
2023/01/21 11:02:20;;;;;;;95.05;22.45;;;0.50;99.90;;;;;;5092733;28;20195;-85
2023/01/21 11:04:53;;;;;;;94.45;21.50;;;0.50;99.90;;;;;;5075462;28;20231;-85
2023/01/21 11:07:20;;;;;;;95.07;21.65;;;0.50;99.90;;;;;;5075481;28;20164;-85
2023/01/21 11:09:50;;;;;;;92.57;21.60;;;0.50;99.90;;;;;;5075142;28;20171;-85
2023/01/21 11:12:29;;;;;;;98.05;23.17;;;0.50;99.90;;;;;;5073712;28;20164;-86
2023/01/21 11:15:07;;;;;;;92.47;21.02;;;0.50;99.90;;;;;;5074275;28;20190;-85
2023/01/21 11:17:36;;;;;;;89.13;21.23;;;0.40;99.90;;;;;;5174554;22;20215;-86
2023/01/21 11:20:11;;;;;;;94.97;20.17;;;0.50;99.90;;;;;;5091293;28;20247;-85
2023/01/21 11:22:44;;;;;;;95.13;22.73;;;0.50;99.90;;;;;;5074224;28;20163;-86
2023/01/21 11:25:33;;;;;;;94.90;22.70;;;0.50;99.90;;;;;;5074012;28;20239;-85
2023/01/21 11:28:02;;;;;;;95.20;22.15;;;0.60;99.90;;;;;;5079391;28;20179;-86
2023/01/21 11:30:40;;;;;;;92.50;20.27;;;0.50;99.90;;;;;;5091815;28;20187;-86
2023/01/21 11:33:20;;;;;;;87.18;20.63;;;0.60;99.90;;;;;;5091449;28;20164;-85
2023/01/21 11:35:46;;;;;;;87.13;19.00;;;0.60;99.90;;;;;;5074165;28;20171;-85
2023/01/21 11:39:27;;;;;;;;;;;;;;;;;;;;;
2023/01/21 11:47:33;;;;;;;85.18;17.77;;;0.70;99.90;;;;;;3013307;26;20696;-86
2023/01/21 11:51:01;;;;;;;86.80;21.27;;;0.70;99.90;;;;;;4917052;29;20207;-87
2023/01/21 11:57:38;;;;;;;83.68;20.85;;;0.70;99.90;;;;;;4967567;28;20243;-86
2023/01/21 12:01:04;;;;;;;;;;;;;;;;;;;;;
2023/01/21 12:04:19;;;;;;;87.03;22.63;;;0.80;99.90;;;;;;4986463;28;20692;-86
2023/01/21 12:06:56;;;;;;;85.20;20.77;;;0.80;99.90;;;;;;4931766;29;20173;-86
2023/01/21 12:09:28;;;;;;;83.47;24.58;;;0.80;99.90;;;;;;4915559;29;20176;-86
2023/01/21 12:12:58;;;;;;;84.95;23.90;;;0.90;99.90;;;;;;4932064;29;20197;-86
2023/01/21 12:16:11;;;;;;;87.10;24.35;;;0.90;99.90;;;;;;4958313;28;20182;-86
2023/01/21 12:19:16;;;;;;;86.32;25.48;;;1.00;99.90;;;;;;4992064;28;20178;-86
2023/01/21 12:22:19;;;;;;;90.00;26.33;;;1.00;99.90;;;;;;4941287;28;20790;-86
2023/01/21 12:25:41;;;;;;;89.68;24.23;;;1.00;99.90;;;;;;5003947;28;20178;-86
2023/01/21 12:28:23;;;;;;;90.07;24.42;;;1.10;99.90;;;;;;5008681;28;20190;-86
2023/01/21 12:31:31;;;;;;;91.63;24.08;;;1.10;99.90;;;;;;5009358;28;20213;-86
2023/01/21 12:34:40;;;;;;;82.03;22.85;;;1.10;99.90;;;;;;4931099;29;20181;-86
2023/01/21 12:37:41;;;;;;;84.95;24.50;;;1.20;99.90;;;;;;4963028;28;20178;-86
2023/01/21 12:40:58;;;;;;;83.10;23.63;;;1.30;99.90;;;;;;5009294;28;20213;-86
2023/01/21 12:43:49;;;;;;;89.82;20.13;;;1.30;99.90;;;;;;4931688;29;20176;-86
2023/01/21 12:46:25;;;;;;;80.00;20.05;;;1.30;99.90;;;;;;4931491;29;20181;-86
2023/01/21 12:49:06;;;;;;;78.53;19.08;;;1.30;99.90;;;;;;4975757;28;20178;-86
2023/01/21 12:51:47;;;;;;;78.13;15.48;;;1.30;99.90;;;;;;5008808;28;20214;-86
2023/01/21 12:57:33;;;;;;;82.70;15.93;;;1.40;99.90;;;;;;4970264;28;20174;-86
2023/01/21 13:00:34;;;;;;;74.25;12.90;;;1.40;99.90;;;;;;5008694;28;20195;-86
2023/01/21 13:03:22;;;;;;;78.50;14.48;;;1.40;99.90;;;;;;4969142;28;20182;-86
2023/01/21 13:06:10;;;;;;;74.78;12.30;;;1.50;99.90;;;;;;5009529;28;20158;-86
2023/01/21 13:09:03;;;;;;;73.30;11.20;;;1.50;99.90;;;;;;4992717;28;20186;-86
2023/01/21 13:11:41;;;;;;;75.75;12.50;;;1.50;99.90;;;;;;5009164;28;20193;-86
2023/01/21 13:14:07;;;;;;;77.78;12.55;;;1.50;99.90;;;;;;4992773;28;20162;-86
2023/01/21 13:17:23;;;;;;;73.00;9.50;;;1.60;99.90;;;;;;5009263;28;20202;-86
2023/01/21 13:20:10;;;;;;;74.60;11.02;;;1.50;99.90;;;;;;4911465;29;20340;-85